Queensville, Indiana
Current Conditions -  °F | °C
As of 8:32 AM on Monday 22 Dec 2014 (Local Time) from KIMS Reporting Station
Overcast Overcast  
Wind Chill: 30°   Ceiling: 8000
Heat Index: 36°   Visibility: 10mi
Dew Point: 28°   Wind: 7mph
Humidity: 75%   Direction: 110°ESE
Pressure: 30"   Gusts: NA
Location:  38.9859°N, 85.6189°W
Report Text: KIMS 221332Z AUTO 11006KT 10SM SCT050 OVC080 02/M02 A3000 RMK AO1
Loading
Personal Weather Stations






























Interactive Weather Map New forecast layout! Learn more

10-Day Weather Forecast

Advertisements
Track Severe Weather on mobile